createdAt,value
2023-03-05T00:01:25.062Z,50.40
2023-03-05T00:03:54.354Z,48.60
2023-03-05T00:06:23.709Z,48.97
2023-03-05T00:08:53.629Z,49.03
2023-03-05T00:11:22.003Z,46.88
2023-03-05T00:13:52.633Z,50.78
2023-03-05T00:16:20.790Z,49.17
2023-03-05T00:18:49.884Z,52.83
2023-03-05T00:21:22.184Z,49.03
2023-03-05T00:23:51.077Z,54.10
2023-03-05T00:26:22.753Z,48.90
2023-03-05T00:28:52.736Z,48.50
2023-03-05T00:31:22.227Z,50.95
2023-03-05T00:33:52.968Z,48.90
2023-03-05T00:36:20.954Z,50.53
2023-03-05T00:38:49.023Z,48.95
2023-03-05T00:41:17.493Z,46.42
2023-03-05T00:43:45.350Z,47.83
2023-03-05T00:46:12.986Z,49.00
2023-03-05T00:48:40.586Z,42.92
2023-03-05T00:51:09.451Z,48.65
2023-03-05T00:53:37.579Z,51.65
2023-03-05T00:56:06.173Z,47.70
2023-03-05T00:58:34.046Z,52.17
2023-03-05T01:01:02.955Z,50.75
2023-03-05T01:03:31.321Z,45.75
2023-03-05T01:05:59.034Z,47.53
2023-03-05T01:08:27.409Z,49.35
2023-03-05T01:10:55.219Z,56.55
2023-03-05T01:13:22.930Z,50.90
2023-03-05T01:15:51.514Z,53.47
2023-03-05T01:18:20.200Z,43.05
2023-03-05T01:20:48.400Z,48.40
2023-03-05T01:23:16.029Z,52.15
2023-03-05T01:25:43.838Z,48.97
2023-03-05T01:28:11.636Z,47.70
2023-03-05T01:30:42.190Z,50.47
2023-03-05T01:33:09.848Z,46.83
2023-03-05T01:35:37.745Z,49.92
2023-03-05T01:38:05.557Z,50.78
2023-03-05T01:40:33.419Z,48.05
2023-03-05T01:43:02.884Z,53.83
2023-03-05T01:45:33.608Z,49.45
2023-03-05T01:48:01.357Z,47.80
2023-03-05T01:50:30.535Z,50.35
2023-03-05T01:53:03.170Z,51.08
2023-03-05T01:55:32.845Z,53.50
2023-03-05T01:58:02.994Z,50.53
2023-03-05T02:00:34.408Z,51.97
2023-03-05T02:03:04.624Z,50.05
2023-03-05T02:05:36.806Z,46.22
2023-03-05T02:08:09.347Z,50.88
2023-03-05T02:10:36.973Z,49.20
2023-03-05T02:13:09.555Z,54.50
2023-03-05T02:15:38.256Z,54.42
2023-03-05T02:18:07.057Z,52.80
2023-03-05T02:20:47.246Z,48.80
2023-03-05T02:23:15.730Z,47.60
2023-03-05T02:25:43.624Z,48.58
2023-03-05T02:28:21.444Z,46.72
2023-03-05T02:30:49.217Z,52.40
2023-03-05T02:33:18.323Z,55.20
2023-03-05T02:35:46.808Z,49.10
2023-03-05T02:38:15.416Z,54.42
2023-03-05T02:40:43.343Z,50.55
2023-03-05T02:43:11.854Z,49.33
2023-03-05T02:45:40.134Z,54.80
2023-03-05T02:48:08.036Z,53.63
2023-03-05T02:50:36.822Z,56.97
2023-03-05T02:53:06.116Z,55.05
2023-03-05T02:55:36.561Z,51.80
2023-03-05T02:58:04.330Z,51.07
2023-03-05T03:00:31.956Z,51.90
2023-03-05T03:02:59.759Z,55.33
2023-03-05T03:05:28.189Z,54.03
2023-03-05T03:07:56.157Z,54.10
2023-03-05T03:10:23.944Z,53.55
2023-03-05T03:12:51.873Z,51.45
2023-03-05T03:15:20.204Z,61.75
2023-03-05T03:17:48.164Z,58.67
2023-03-05T03:20:17.469Z,51.60
2023-03-05T03:22:45.845Z,56.75
2023-03-05T03:25:22.190Z,56.30
2023-03-05T03:27:52.893Z,56.78
2023-03-05T03:30:20.602Z,61.97
2023-03-05T03:32:48.266Z,51.65
2023-03-05T03:35:16.092Z,53.67
2023-03-05T03:37:43.818Z,56.55
2023-03-05T03:40:12.551Z,55.55
2023-03-05T03:42:40.328Z,52.92
2023-03-05T03:45:08.420Z,55.63
2023-03-05T03:47:36.265Z,58.15
2023-03-05T03:50:04.367Z,58.15
2023-03-05T03:52:32.393Z,56.45
2023-03-05T03:55:02.446Z,56.85
2023-03-05T03:57:30.822Z,58.60
2023-03-05T03:59:58.491Z,60.15
2023-03-05T04:02:26.501Z,58.20
2023-03-05T04:04:54.522Z,60.03
2023-03-05T04:07:22.227Z,57.47
2023-03-05T04:09:50.231Z,62.75
2023-03-05T04:12:18.432Z,58.97
2023-03-05T04:14:47.007Z,52.75
2023-03-05T04:17:15.418Z,62.13
2023-03-05T04:19:43.994Z,49.55
2023-03-05T04:22:15.619Z,56.85
2023-03-05T04:24:43.672Z,54.33
2023-03-05T04:27:12.375Z,57.72
2023-03-05T04:29:40.370Z,53.80
2023-03-05T04:32:09.174Z,56.10
2023-03-05T04:34:38.564Z,54.83
2023-03-05T04:37:06.489Z,59.38
2023-03-05T04:39:34.443Z,60.35
2023-03-05T04:42:02.763Z,56.33
2023-03-05T04:44:30.402Z,58.25
2023-03-05T04:46:58.446Z,59.05
2023-03-05T04:49:26.602Z,56.78
2023-03-05T04:51:55.212Z,58.70
2023-03-05T04:54:23.264Z,60.60
2023-03-05T04:56:51.104Z,58.88
2023-03-05T04:59:18.830Z,55.33
2023-03-05T05:01:47.138Z,58.53
2023-03-05T05:04:15.024Z,63.17
2023-03-05T05:06:42.839Z,58.65
2023-03-05T05:09:10.641Z,54.58
2023-03-05T05:11:38.604Z,55.85
2023-03-05T05:14:06.394Z,55.83
2023-03-05T05:16:34.492Z,57.67
2023-03-05T05:19:02.598Z,59.63
2023-03-05T05:21:30.534Z,59.28
2023-03-05T05:23:58.439Z,57.53
2023-03-05T05:26:26.446Z,56.75
2023-03-05T05:28:54.388Z,64.95
2023-03-05T05:31:22.442Z,64.22
2023-03-05T05:33:50.453Z,59.28
2023-03-05T05:36:19.441Z,59.08
2023-03-05T05:38:47.328Z,61.28
2023-03-05T05:41:16.453Z,63.10
2023-03-05T05:43:44.395Z,61.70
2023-03-05T05:46:13.993Z,69.20
2023-03-05T05:48:43.836Z,61.65
2023-03-05T05:51:14.920Z,65.43
2023-03-05T05:53:43.024Z,66.10
2023-03-05T05:56:11.308Z,69.32
2023-03-05T05:58:39.788Z,65.15
2023-03-05T06:01:26.460Z,67.63
2023-03-05T06:03:54.430Z,62.17
2023-03-05T06:06:24.035Z,66.00
2023-03-05T06:08:52.171Z,65.22
2023-03-05T06:11:20.084Z,69.47
2023-03-05T06:13:48.506Z,64.53
2023-03-05T06:16:17.697Z,62.35
2023-03-05T06:18:45.766Z,69.20
2023-03-05T06:21:14.931Z,65.72
2023-03-05T06:23:44.289Z,63.33
2023-03-05T06:26:13.107Z,61.25
2023-03-05T06:28:40.709Z,65.90
2023-03-05T06:31:12.144Z,66.88
2023-03-05T06:33:40.477Z,68.10
2023-03-05T06:36:09.338Z,61.42
2023-03-05T06:38:37.719Z,68.35
2023-03-05T06:41:07.002Z,63.30
2023-03-05T06:43:35.658Z,64.05
2023-03-05T06:46:08.065Z,58.83
2023-03-05T06:48:35.803Z,65.20
2023-03-05T06:51:03.487Z,61.13
2023-03-05T06:53:31.593Z,61.65
2023-03-05T06:56:02.213Z,59.83
2023-03-05T06:58:30.658Z,61.45
2023-03-05T07:00:58.476Z,59.20
2023-03-05T07:03:26.437Z,57.10
2023-03-05T07:05:54.272Z,61.80
2023-03-05T07:08:22.583Z,55.70
2023-03-05T07:10:50.425Z,57.38
2023-03-05T07:13:18.453Z,57.15
2023-03-05T07:15:46.192Z,60.08
2023-03-05T07:18:14.179Z,57.47
2023-03-05T07:20:42.109Z,58.85
2023-03-05T07:23:09.952Z,59.10
2023-03-05T07:25:38.065Z,60.75
2023-03-05T07:28:06.974Z,58.58
2023-03-05T07:30:35.468Z,60.03
2023-03-05T07:33:03.222Z,51.72
2023-03-05T07:35:30.983Z,62.03
2023-03-05T07:37:58.632Z,55.05
2023-03-05T07:40:26.726Z,53.67
2023-03-05T07:42:54.670Z,59.60
2023-03-05T07:45:30.290Z,55.92
2023-03-05T07:47:58.378Z,53.13
2023-03-05T07:50:26.262Z,52.90
2023-03-05T07:52:54.106Z,52.60
2023-03-05T07:55:21.950Z,54.58
2023-03-05T07:57:51.490Z,53.63
2023-03-05T08:00:21.865Z,57.83
2023-03-05T08:05:39.672Z,55.30
2023-03-05T08:19:05.323Z,58.70
2023-03-05T08:21:37.102Z,53.95
2023-03-05T08:24:12.458Z,54.65
2023-03-05T08:26:43.786Z,54.15
2023-03-05T08:29:11.697Z,57.03
2023-03-05T08:31:47.029Z,56.13
2023-03-05T08:36:58.542Z,54.80
2023-03-05T08:47:32.408Z,58.38
2023-03-05T08:50:00.181Z,52.90
2023-03-05T09:03:19.968Z,50.90
2023-03-05T09:09:03.274Z,50.35
2023-03-05T09:11:31.132Z,44.25
2023-03-05T09:14:01.512Z,44.78
2023-03-05T09:16:39.880Z,50.38
2023-03-05T09:19:15.977Z,47.85
2023-03-05T09:57:49.817Z,35.53
2023-03-05T10:00:21.220Z,30.35
2023-03-05T10:03:00.937Z,31.83
2023-03-05T10:08:32.385Z,33.08
2023-03-05T10:14:09.825Z,37.17
2023-03-05T10:16:39.921Z,31.73
2023-03-05T10:19:28.932Z,31.85
2023-03-05T10:21:56.898Z,31.55
2023-03-05T10:31:14.707Z,28.35
2023-03-05T10:33:48.577Z,28.63
2023-03-05T10:36:24.399Z,38.72
2023-03-05T10:38:56.855Z,26.65
2023-03-05T10:41:52.610Z,31.50
2023-03-05T10:44:34.880Z,30.50
2023-03-05T10:47:07.851Z,35.20
2023-03-05T10:49:53.751Z,31.98
2023-03-05T11:01:14.707Z,28.02
2023-03-05T11:25:35.803Z,25.08
2023-03-05T11:28:33.319Z,23.10
2023-03-05T11:34:03.767Z,18.80
2023-03-05T11:42:14.863Z,20.95
2023-03-05T11:53:30.090Z,26.40
2023-03-05T11:56:05.088Z,24.13
2023-03-05T11:58:33.177Z,25.20
2023-03-05T12:01:01.418Z,20.35
2023-03-05T12:03:39.642Z,21.75
2023-03-05T12:06:08.319Z,22.08
2023-03-05T12:08:38.162Z,22.25
2023-03-05T12:11:07.833Z,23.33
2023-03-05T12:13:43.062Z,21.00
2023-03-05T12:16:14.113Z,20.10
2023-03-05T12:18:53.307Z,19.58
2023-03-05T12:21:25.768Z,17.05
2023-03-05T12:24:04.035Z,15.18
2023-03-05T12:26:59.631Z,17.52
2023-03-05T12:29:41.322Z,17.02
2023-03-05T12:32:33.354Z,16.42
2023-03-05T12:35:01.192Z,10.45
2023-03-05T12:37:28.872Z,10.18
2023-03-05T12:40:13.530Z,12.02
2023-03-05T12:42:48.252Z,14.43
2023-03-05T12:45:24.206Z,14.30
2023-03-05T12:47:58.188Z,15.32
2023-03-05T12:50:30.918Z,18.17
2023-03-05T12:55:48.254Z,15.45
2023-03-05T12:58:19.356Z,16.40
2023-03-05T13:00:55.687Z,17.45
2023-03-05T13:03:27.089Z,21.02
2023-03-05T13:05:59.721Z,17.42
2023-03-05T13:08:33.015Z,17.17
2023-03-05T13:11:01.353Z,17.63
2023-03-05T13:13:34.394Z,18.73
2023-03-05T13:16:03.232Z,17.08
2023-03-05T13:18:33.669Z,15.68
2023-03-05T13:21:06.791Z,18.35
2023-03-05T13:23:35.577Z,17.20
2023-03-05T13:26:18.708Z,16.90
2023-03-05T13:29:03.962Z,16.17
2023-03-05T13:31:32.795Z,16.95
2023-03-05T13:34:08.967Z,16.25
2023-03-05T13:36:40.261Z,13.85
2023-03-05T13:39:08.505Z,13.95
2023-03-05T13:41:38.997Z,15.50
2023-03-05T13:44:14.637Z,15.18
2023-03-05T13:46:46.430Z,13.90
2023-03-05T13:49:23.903Z,18.38
2023-03-05T13:51:54.554Z,14.70
2023-03-05T13:54:27.300Z,15.60
2023-03-05T13:57:03.020Z,13.13
2023-03-05T13:59:33.097Z,15.10
2023-03-05T14:04:50.435Z,14.95
2023-03-05T14:07:21.861Z,12.07
2023-03-05T14:09:59.975Z,12.68
2023-03-05T14:15:39.825Z,13.10
2023-03-05T14:24:09.080Z,12.85
2023-03-05T14:53:32.691Z,12.25
2023-03-05T14:56:05.820Z,10.80
2023-03-05T15:04:47.067Z,13.02
2023-03-05T15:07:19.529Z,11.88
2023-03-05T15:09:59.120Z,15.73
2023-03-05T15:12:39.956Z,9.68
2023-03-05T15:15:08.138Z,10.32
2023-03-05T15:20:59.347Z,11.15
2023-03-05T15:26:35.724Z,10.57
2023-03-05T15:35:25.446Z,10.90
2023-03-05T15:38:08.395Z,8.10
2023-03-05T15:46:51.746Z,10.23
2023-03-05T15:58:00.579Z,7.63
2023-03-05T16:21:22.737Z,9.82
2023-03-05T16:24:08.692Z,12.50
2023-03-05T16:32:28.577Z,9.33
2023-03-05T16:52:03.501Z,9.02
2023-03-05T17:00:36.100Z,9.70
2023-03-05T17:06:16.031Z,9.50
2023-03-05T17:19:41.785Z,7.95
2023-03-05T17:22:11.906Z,11.10
2023-03-05T17:24:43.315Z,7.13
2023-03-05T17:27:11.459Z,8.75
2023-03-05T17:29:39.558Z,12.75
2023-03-05T17:32:07.675Z,10.40
2023-03-05T17:34:36.961Z,12.43
2023-03-05T17:37:07.118Z,10.55
2023-03-05T17:39:35.186Z,10.40
2023-03-05T17:42:03.609Z,9.45
2023-03-05T17:49:56.119Z,10.15
2023-03-05T17:52:23.928Z,10.85
2023-03-05T17:54:54.568Z,12.13
2023-03-05T17:57:22.506Z,9.82
2023-03-05T17:59:50.733Z,13.57
2023-03-05T18:02:18.534Z,14.38
2023-03-05T18:04:47.929Z,13.45
2023-03-05T18:07:15.860Z,11.68
2023-03-05T18:09:50.909Z,9.98
2023-03-05T18:12:19.577Z,15.90
2023-03-05T18:14:47.624Z,14.50
2023-03-05T18:17:15.383Z,11.65
2023-03-05T18:19:43.810Z,11.43
2023-03-05T18:22:18.749Z,16.13
2023-03-05T18:24:52.502Z,13.00
2023-03-05T18:27:22.692Z,16.83
2023-03-05T18:29:54.932Z,19.67
2023-03-05T18:40:44.191Z,16.65
2023-03-05T18:43:12.217Z,13.98
2023-03-05T18:45:39.918Z,16.00
2023-03-05T18:48:07.815Z,16.70
2023-03-05T18:50:35.818Z,14.27
2023-03-05T18:53:04.300Z,15.88
2023-03-05T18:55:35.355Z,15.13
2023-03-05T18:58:03.487Z,15.25
2023-03-05T19:00:33.406Z,16.95
2023-03-05T19:03:03.206Z,16.75
2023-03-05T19:05:32.064Z,14.13
2023-03-05T19:08:00.362Z,13.95
2023-03-05T19:10:28.452Z,12.23
2023-03-05T19:13:33.878Z,14.68
2023-03-05T19:16:10.715Z,13.57
2023-03-05T19:19:16.949Z,12.82
2023-03-05T19:21:45.620Z,15.88
2023-03-05T19:24:13.998Z,11.88
2023-03-05T19:26:41.775Z,14.15
2023-03-05T19:29:09.618Z,12.13
2023-03-05T19:31:38.008Z,11.48
2023-03-05T19:34:05.870Z,10.30
2023-03-05T19:36:36.878Z,11.52
2023-03-05T19:41:47.685Z,10.00
2023-03-05T19:44:17.547Z,10.32
2023-03-05T19:46:45.502Z,11.82
2023-03-05T19:49:13.462Z,11.40
2023-03-05T19:51:43.298Z,12.38
2023-03-05T19:54:11.981Z,14.68
2023-03-05T19:56:41.101Z,13.05
2023-03-05T19:59:09.185Z,15.32
2023-03-05T20:01:39.050Z,13.68
2023-03-05T20:04:06.820Z,14.13
2023-03-05T20:06:38.769Z,14.85
2023-03-05T20:09:15.478Z,13.48
2023-03-05T20:11:47.702Z,16.45
2023-03-05T20:14:19.405Z,17.33
2023-03-05T20:16:55.574Z,19.63
2023-03-05T20:19:27.111Z,26.30
2023-03-05T20:24:55.403Z,22.00
2023-03-05T20:27:26.909Z,24.45
2023-03-05T20:29:54.820Z,46.53
2023-03-05T20:32:23.322Z,53.38
2023-03-05T20:35:07.465Z,50.17
2023-03-05T20:38:14.584Z,45.78
2023-03-05T20:43:29.343Z,33.78
2023-03-05T20:45:57.853Z,18.40
2023-03-05T20:48:26.617Z,15.05
2023-03-05T20:51:01.483Z,12.63
2023-03-05T20:53:30.972Z,13.15
2023-03-05T20:55:59.227Z,11.25
2023-03-05T20:58:29.984Z,13.38
2023-03-05T21:00:58.570Z,14.13
2023-03-05T21:03:26.423Z,15.18
2023-03-05T21:06:03.455Z,15.65
2023-03-05T21:08:33.095Z,15.18
2023-03-05T21:11:01.690Z,14.32
2023-03-05T21:13:31.339Z,12.23
2023-03-05T21:16:00.829Z,14.43
2023-03-05T21:18:30.023Z,14.13
2023-03-05T21:20:57.920Z,15.98
2023-03-05T21:23:25.860Z,13.45
2023-03-05T21:25:54.208Z,13.38
2023-03-05T21:28:22.982Z,15.50
2023-03-05T21:30:55.415Z,15.50
2023-03-05T21:36:19.137Z,15.02
2023-03-05T21:38:48.664Z,13.68
2023-03-05T21:41:18.542Z,13.55
2023-03-05T21:43:53.411Z,15.43
2023-03-05T21:46:21.057Z,14.77
2023-03-05T21:48:49.126Z,12.50
2023-03-05T21:57:22.576Z,18.60
2023-03-05T22:02:50.842Z,16.58
2023-03-05T22:05:18.528Z,16.08
2023-03-05T22:07:56.836Z,16.67
2023-03-05T22:10:28.504Z,13.48
2023-03-05T22:13:11.915Z,18.15
2023-03-05T22:15:50.857Z,17.02
2023-03-05T22:18:22.189Z,15.43
2023-03-05T22:20:52.327Z,17.13
2023-03-05T22:23:29.989Z,15.30
2023-03-05T22:26:02.723Z,15.38
2023-03-05T22:28:31.725Z,16.10
2023-03-05T22:30:59.617Z,14.65
2023-03-05T22:33:31.113Z,15.23
2023-03-05T22:36:00.662Z,14.43
2023-03-05T22:38:28.400Z,16.65
2023-03-05T22:40:56.148Z,14.30
2023-03-05T22:43:24.128Z,14.10
2023-03-05T22:45:53.316Z,18.67
2023-03-05T22:48:21.076Z,15.57
2023-03-05T22:50:55.740Z,14.63
2023-03-05T22:53:24.990Z,15.27
2023-03-05T22:55:52.832Z,15.82
2023-03-05T22:58:28.077Z,12.82
2023-03-05T23:00:56.166Z,15.93
2023-03-05T23:03:24.258Z,16.58
2023-03-05T23:05:52.372Z,14.23
2023-03-05T23:08:20.620Z,14.07
2023-03-05T23:10:50.923Z,15.95
2023-03-05T23:13:18.796Z,16.73
2023-03-05T23:15:46.587Z,20.05
2023-03-05T23:18:15.123Z,14.98
2023-03-05T23:20:43.416Z,15.70
2023-03-05T23:23:11.158Z,15.50
2023-03-05T23:25:38.863Z,16.25
2023-03-05T23:28:06.593Z,15.77
2023-03-05T23:30:37.248Z,14.63
2023-03-05T23:33:18.609Z,14.75
2023-03-05T23:38:14.611Z,14.40
2023-03-05T23:40:54.173Z,15.07
2023-03-05T23:43:24.591Z,14.35
2023-03-05T23:45:56.520Z,15.40
2023-03-05T23:48:25.567Z,14.55
2023-03-05T23:50:53.675Z,15.68
2023-03-05T23:53:23.082Z,14.57
2023-03-05T23:55:51.356Z,15.65
2023-03-05T23:58:20.485Z,13.23
